Terminal Aerodrome Forecast
Issued by NWS

Home | Current Version | Previous Version | Text Only | Print | Product List | Glossary On
Versions: 1 2 3 4 5 6 7 8 9 10 11 12 13 14 15
000
FTUS45 KLKN 211120
TAFELY
TAF
KELY 211120Z 2112/2212 17020G35KT P6SM FEW040
     FM211800 19035G49KT P6SM SCT050
     FM220200 19025G38KT P6SM -RA OVC040
     FM220700 19010KT P6SM -SHSN FEW015 OVC035=

USA.gov is the U.S. government's official web portal to all federal, state and local government web resources and services.